createdAt,value
2016-12-24T00:00:41.091Z,0.61
2016-12-24T00:01:51.791Z,0.67
2016-12-24T00:03:02.533Z,0.61
2016-12-24T00:04:13.262Z,0.64
2016-12-24T00:05:23.979Z,0.7
2016-12-24T00:06:34.697Z,0.64
2016-12-24T00:07:45.400Z,0.59
2016-12-24T00:08:56.135Z,0.61
2016-12-24T00:10:06.839Z,0.56
2016-12-24T00:11:17.544Z,0.52
2016-12-24T00:12:28.257Z,0.56
2016-12-24T00:13:38.983Z,0.51
2016-12-24T00:14:49.715Z,0.48
2016-12-24T00:16:00.439Z,0.45
2016-12-24T00:17:11.165Z,0.55
2016-12-24T00:18:21.912Z,0.51
2016-12-24T00:19:32.627Z,0.48
2016-12-24T00:20:43.324Z,0.48
2016-12-24T00:21:54.024Z,0.49
2016-12-24T00:23:04.726Z,0.47
2016-12-24T00:24:15.444Z,0.52
2016-12-24T00:25:26.191Z,0.47
2016-12-24T00:26:36.940Z,0.49
2016-12-24T00:27:47.657Z,0.49
2016-12-24T00:28:58.395Z,0.45
2016-12-24T00:30:09.114Z,0.49
2016-12-24T00:31:19.842Z,0.51
2016-12-24T00:32:30.555Z,0.42
2016-12-24T00:33:41.277Z,0.45
2016-12-24T00:34:51.980Z,0.4
2016-12-24T00:36:02.704Z,0.42
2016-12-24T00:37:13.450Z,0.45
2016-12-24T00:38:24.197Z,0.4
2016-12-24T00:39:34.931Z,0.37
2016-12-24T00:40:45.668Z,0.37
2016-12-24T00:41:56.402Z,0.42
2016-12-24T00:43:07.094Z,0.42
2016-12-24T00:44:17.819Z,0.36
2016-12-24T00:45:28.540Z,0.34
2016-12-24T00:46:39.258Z,0.31
2016-12-24T00:47:49.963Z,0.47
2016-12-24T00:49:00.662Z,0.44
2016-12-24T00:50:11.378Z,0.37
2016-12-24T00:51:22.124Z,0.34
2016-12-24T00:52:32.846Z,0.47
2016-12-24T00:53:43.561Z,0.39
2016-12-24T00:54:54.289Z,0.44
2016-12-24T00:56:05.015Z,0.44
2016-12-24T00:57:15.747Z,0.37
2016-12-24T00:58:26.480Z,0.42
2016-12-24T00:59:37.213Z,0.45
2016-12-24T01:00:47.947Z,0.48
2016-12-24T01:01:58.630Z,0.48
2016-12-24T01:03:09.327Z,0.52
2016-12-24T01:04:20.048Z,0.52
2016-12-24T01:05:30.797Z,0.52
2016-12-24T01:06:41.543Z,0.56
2016-12-24T01:07:52.260Z,0.58
2016-12-24T01:09:02.964Z,0.61
2016-12-24T01:10:13.663Z,0.67
2016-12-24T01:11:24.377Z,0.63
2016-12-24T01:12:35.077Z,0.63
2016-12-24T01:13:45.773Z,0.61
2016-12-24T01:14:56.501Z,0.63
2016-12-24T01:16:07.220Z,0.66
2016-12-24T01:17:17.942Z,0.68
2016-12-24T01:18:28.678Z,0.78
2016-12-24T01:19:39.377Z,0.67
2016-12-24T01:20:50.424Z,0.73
2016-12-24T01:22:01.141Z,0.7
2016-12-24T01:23:12.158Z,0.7
2016-12-24T01:24:22.941Z,0.7
2016-12-24T01:25:33.679Z,0.63
2016-12-24T01:26:44.410Z,0.76
2016-12-24T01:27:55.116Z,0.73
2016-12-24T01:29:05.839Z,0.73
2016-12-24T01:30:16.591Z,0.73
2016-12-24T01:31:27.334Z,0.78
2016-12-24T01:32:38.084Z,0.81
2016-12-24T01:33:49.125Z,0.77
2016-12-24T01:34:59.843Z,0.73
2016-12-24T01:36:10.575Z,0.81
2016-12-24T01:37:21.286Z,0.78
2016-12-24T01:38:32.014Z,0.74
2016-12-24T01:39:42.703Z,0.84
2016-12-24T01:40:53.451Z,0.76
2016-12-24T01:42:04.480Z,0.82
2016-12-24T01:43:15.194Z,0.71
2016-12-24T01:44:25.923Z,0.82
2016-12-24T01:45:36.647Z,0.78
2016-12-24T01:46:47.365Z,0.71
2016-12-24T01:47:58.103Z,0.71
2016-12-24T01:49:08.857Z,0.71
2016-12-24T01:50:19.592Z,0.73
2016-12-24T01:51:30.298Z,0.76
2016-12-24T01:52:41.009Z,0.74
2016-12-24T01:53:51.741Z,0.77
2016-12-24T01:55:02.466Z,0.73
2016-12-24T01:56:13.203Z,0.74
2016-12-24T01:57:23.900Z,0.59
2016-12-24T01:58:34.617Z,0.68
2016-12-24T01:59:45.358Z,0.7
2016-12-24T02:00:56.105Z,0.7
2016-12-24T02:02:06.825Z,0.67
2016-12-24T02:03:17.555Z,0.7
2016-12-24T02:04:28.270Z,0.7
2016-12-24T02:05:39.013Z,0.61
2016-12-24T02:06:49.736Z,0.73
2016-12-24T02:08:00.463Z,0.71
2016-12-24T02:09:11.483Z,0.73
2016-12-24T02:10:22.171Z,0.73
2016-12-24T02:11:32.925Z,0.78
2016-12-24T02:12:43.667Z,0.74
2016-12-24T02:13:54.370Z,0.74
2016-12-24T02:15:05.093Z,0.86
2016-12-24T02:16:15.826Z,0.84
2016-12-24T02:17:26.535Z,0.86
2016-12-24T02:18:37.243Z,0.82
2016-12-24T02:19:47.976Z,0.92
2016-12-24T02:20:58.697Z,0.95
2016-12-24T02:22:09.713Z,0.96
2016-12-24T02:23:20.413Z,1.04
2016-12-24T02:24:31.151Z,1.03
2016-12-24T02:25:41.854Z,1.03
2016-12-24T02:26:52.548Z,1.03
2016-12-24T02:28:03.247Z,1.07
2016-12-24T02:29:13.982Z,1.03
2016-12-24T02:30:24.677Z,1.2
2016-12-24T02:31:35.411Z,1.18
2016-12-24T02:32:46.144Z,1.2
2016-12-24T02:33:56.865Z,1.18
2016-12-24T02:35:07.589Z,1.04
2016-12-24T02:36:18.285Z,1.12
2016-12-24T02:37:29.036Z,1.27
2016-12-24T02:38:39.799Z,1.24
2016-12-24T02:39:50.521Z,1.3
2016-12-24T02:41:01.276Z,1.32
2016-12-24T02:42:11.994Z,1.31
2016-12-24T02:43:22.712Z,1.38
2016-12-24T02:44:33.482Z,1.34
2016-12-24T02:45:44.203Z,1.38
2016-12-24T02:46:54.921Z,1.45
2016-12-24T02:48:05.694Z,1.43
2016-12-24T02:49:16.441Z,1.39
2016-12-24T02:50:27.160Z,1.58
2016-12-24T02:51:37.883Z,1.48
2016-12-24T02:52:48.629Z,1.53
2016-12-24T02:53:59.351Z,1.52
2016-12-24T02:55:10.067Z,1.58
2016-12-24T02:56:20.821Z,1.63
2016-12-24T02:57:31.545Z,1.63
2016-12-24T02:58:42.265Z,1.66
2016-12-24T02:59:52.980Z,1.64
2016-12-24T03:01:03.680Z,1.67
2016-12-24T03:02:14.408Z,1.74
2016-12-24T03:03:25.126Z,1.76
2016-12-24T03:04:35.820Z,1.75
2016-12-24T03:05:46.543Z,1.76
2016-12-24T03:06:57.266Z,1.82
2016-12-24T03:08:07.999Z,1.79
2016-12-24T03:09:18.749Z,1.86
2016-12-24T03:10:29.469Z,1.93
2016-12-24T03:11:40.199Z,1.98
2016-12-24T03:12:50.962Z,1.93
2016-12-24T03:14:01.708Z,1.97
2016-12-24T03:15:12.411Z,2.04
2016-12-24T03:16:23.133Z,1.98
2016-12-24T03:17:33.843Z,2.07
2016-12-24T03:18:44.567Z,2.05
2016-12-24T03:19:55.267Z,2.08
2016-12-24T03:21:05.991Z,2.07
2016-12-24T03:22:16.702Z,2.07
2016-12-24T03:23:27.458Z,2.16
2016-12-24T03:24:38.156Z,2.18
2016-12-24T03:25:48.897Z,2.22
2016-12-24T03:26:59.597Z,2.19
2016-12-24T03:28:10.335Z,2.21
2016-12-24T03:29:21.061Z,2.28
2016-12-24T03:30:31.761Z,2.32
2016-12-24T03:31:42.502Z,2.36
2016-12-24T03:32:53.227Z,2.32
2016-12-24T03:34:03.915Z,2.37
2016-12-24T03:35:14.635Z,2.44
2016-12-24T03:36:25.353Z,2.37
2016-12-24T03:37:36.111Z,2.37
2016-12-24T03:38:46.808Z,2.36
2016-12-24T03:39:57.536Z,2.37
2016-12-24T03:41:08.267Z,2.37
2016-12-24T03:42:18.995Z,2.39
2016-12-24T03:43:29.712Z,2.37
2016-12-24T03:44:40.435Z,2.41
2016-12-24T03:45:51.157Z,2.4
2016-12-24T03:47:01.856Z,2.43
2016-12-24T03:48:12.592Z,2.43
2016-12-24T03:49:23.321Z,2.46
2016-12-24T03:50:34.030Z,2.4
2016-12-24T03:51:44.761Z,2.37
2016-12-24T03:52:55.477Z,2.4
2016-12-24T03:54:06.527Z,2.41
2016-12-24T03:55:17.276Z,2.34
2016-12-24T03:56:27.972Z,2.55
2016-12-24T03:57:38.711Z,2.47
2016-12-24T03:58:49.430Z,2.44
2016-12-24T04:00:00.159Z,2.4
2016-12-24T04:01:11.195Z,2.39
2016-12-24T04:02:21.930Z,2.41
2016-12-24T04:03:32.661Z,2.47
2016-12-24T04:04:43.394Z,2.47
2016-12-24T04:05:54.136Z,2.52
2016-12-24T04:07:04.879Z,2.46
2016-12-24T04:08:15.625Z,2.47
2016-12-24T04:09:26.354Z,2.51
2016-12-24T04:10:37.091Z,2.52
2016-12-24T04:11:47.821Z,2.46
2016-12-24T04:12:58.557Z,2.52
2016-12-24T04:14:09.275Z,2.47
2016-12-24T04:15:19.987Z,2.61
2016-12-24T04:16:30.721Z,2.57
2016-12-24T04:17:41.456Z,2.62
2016-12-24T04:18:52.168Z,2.64
2016-12-24T04:20:02.871Z,2.62
2016-12-24T04:21:13.603Z,2.65
2016-12-24T04:22:24.335Z,2.61
2016-12-24T04:23:35.094Z,2.62
2016-12-24T04:24:45.840Z,2.76
2016-12-24T04:25:56.922Z,2.72
2016-12-24T04:27:07.643Z,2.73
2016-12-24T04:28:18.362Z,2.73
2016-12-24T04:29:29.085Z,2.69
2016-12-24T04:30:39.796Z,2.75
2016-12-24T04:31:50.531Z,2.72
2016-12-24T04:33:01.269Z,2.75
2016-12-24T04:34:12.011Z,2.83
2016-12-24T04:35:22.734Z,2.83
2016-12-24T04:36:33.438Z,2.83
2016-12-24T04:37:44.183Z,2.87
2016-12-24T04:38:54.906Z,2.83
2016-12-24T04:40:05.664Z,2.82
2016-12-24T04:41:16.393Z,2.88
2016-12-24T04:42:27.105Z,2.95
2016-12-24T04:43:37.805Z,2.97
2016-12-24T04:44:48.535Z,2.9
2016-12-24T04:45:59.274Z,2.95
2016-12-24T04:47:09.979Z,2.9
2016-12-24T04:48:20.710Z,2.93
2016-12-24T04:49:31.460Z,2.88
2016-12-24T04:50:42.178Z,2.87
2016-12-24T04:51:52.878Z,3
2016-12-24T04:53:03.594Z,3
2016-12-24T04:54:14.302Z,3.08
2016-12-24T04:55:25.020Z,2.94
2016-12-24T04:56:35.736Z,2.98
2016-12-24T04:57:46.471Z,3.03
2016-12-24T04:58:57.200Z,3
2016-12-24T05:00:07.958Z,3.03
2016-12-24T05:01:18.668Z,2.98
2016-12-24T05:02:29.421Z,3.06
2016-12-24T05:03:40.134Z,3.05
2016-12-24T05:04:50.841Z,3
2016-12-24T05:06:01.579Z,3.06
2016-12-24T05:07:12.326Z,3.11
2016-12-24T05:08:23.057Z,3.05
2016-12-24T05:09:33.792Z,3.11
2016-12-24T05:10:44.493Z,3.13
2016-12-24T05:11:55.207Z,3.16
2016-12-24T05:13:05.938Z,3.09
2016-12-24T05:14:16.660Z,3.15
2016-12-24T05:15:27.405Z,3.11
2016-12-24T05:16:38.140Z,3.26
2016-12-24T05:17:48.864Z,3.22
2016-12-24T05:18:59.565Z,3.31
2016-12-24T05:20:10.615Z,3.24
2016-12-24T05:21:21.335Z,3.33
2016-12-24T05:22:32.057Z,3.37
2016-12-24T05:23:43.078Z,3.3
2016-12-24T05:24:53.791Z,3.24
2016-12-24T05:26:04.521Z,3.27
2016-12-24T05:27:15.242Z,3.26
2016-12-24T05:28:25.978Z,3.3
2016-12-24T05:29:36.684Z,3.31
2016-12-24T05:30:47.417Z,3.3
2016-12-24T05:31:58.139Z,3.26
2016-12-24T05:33:08.868Z,3.34
2016-12-24T05:34:19.585Z,3.36
2016-12-24T05:35:30.302Z,3.4
2016-12-24T05:36:41.028Z,3.41
2016-12-24T05:37:51.776Z,3.41
2016-12-24T05:39:02.819Z,3.41
2016-12-24T05:40:13.524Z,3.4
2016-12-24T05:41:24.261Z,3.36
2016-12-24T05:42:34.978Z,3.34
2016-12-24T05:43:45.686Z,3.41
2016-12-24T05:44:56.395Z,3.43
2016-12-24T05:46:07.146Z,3.4
2016-12-24T05:47:17.862Z,3.4
2016-12-24T05:48:28.587Z,3.37
2016-12-24T05:49:39.336Z,3.4
2016-12-24T05:50:50.062Z,3.45
2016-12-24T05:52:00.796Z,3.43
2016-12-24T05:53:11.575Z,3.41
2016-12-24T05:54:22.296Z,3.41
2016-12-24T05:55:32.994Z,3.41
2016-12-24T05:56:43.718Z,3.27
2016-12-24T05:57:54.479Z,3.4
2016-12-24T05:59:05.183Z,3.36
2016-12-24T06:00:15.907Z,3.43
2016-12-24T06:01:26.665Z,3.36
2016-12-24T06:02:37.389Z,3.33
2016-12-24T06:03:48.115Z,3.34
2016-12-24T06:04:59.131Z,3.34
2016-12-24T06:06:09.852Z,3.34
2016-12-24T06:07:20.558Z,3.27
2016-12-24T06:08:31.293Z,3.33
2016-12-24T06:09:42.015Z,3.29
2016-12-24T06:10:52.743Z,3.34
2016-12-24T06:12:03.507Z,3.29
2016-12-24T06:13:14.228Z,3.3
2016-12-24T06:14:24.945Z,3.36
2016-12-24T06:15:35.692Z,3.36
2016-12-24T06:16:46.416Z,3.43
2016-12-24T06:17:57.143Z,3.36
2016-12-24T06:19:07.866Z,3.31
2016-12-24T06:20:18.608Z,3.36
2016-12-24T06:21:29.601Z,3.37
2016-12-24T06:22:40.329Z,3.41
2016-12-24T06:23:51.038Z,3.45
2016-12-24T06:25:01.760Z,3.41
2016-12-24T06:26:12.492Z,3.48
2016-12-24T06:27:23.205Z,3.45
2016-12-24T06:28:33.908Z,3.43
2016-12-24T06:29:44.655Z,3.4
2016-12-24T06:30:55.368Z,3.41
2016-12-24T06:32:06.072Z,3.37
2016-12-24T06:33:16.782Z,3.43
2016-12-24T06:34:27.539Z,3.41
2016-12-24T06:35:38.248Z,3.41
2016-12-24T06:36:48.981Z,3.45
2016-12-24T06:37:59.698Z,3.43
2016-12-24T06:39:10.724Z,3.45
2016-12-24T06:40:21.468Z,3.41
2016-12-24T06:41:32.165Z,3.41
2016-12-24T06:42:42.875Z,3.5
2016-12-24T06:43:53.603Z,3.5
2016-12-24T06:45:04.328Z,3.46
2016-12-24T06:46:15.041Z,3.49
2016-12-24T06:47:25.766Z,3.5
2016-12-24T06:48:36.488Z,3.49
2016-12-24T06:49:47.230Z,3.52
2016-12-24T06:50:57.976Z,3.5
2016-12-24T06:52:08.701Z,3.5
2016-12-24T06:53:19.414Z,3.49
2016-12-24T06:54:30.160Z,3.46
2016-12-24T06:55:40.893Z,3.49
2016-12-24T06:56:51.655Z,3.46
2016-12-24T06:58:02.401Z,3.49
2016-12-24T06:59:13.119Z,3.64
2016-12-24T07:00:23.869Z,3.53
2016-12-24T07:01:34.618Z,3.5
2016-12-24T07:02:45.336Z,3.63
2016-12-24T07:03:56.063Z,3.53
2016-12-24T07:05:06.781Z,3.63
2016-12-24T07:06:17.498Z,3.61
2016-12-24T07:07:28.240Z,3.64
2016-12-24T07:08:38.965Z,3.66
2016-12-24T07:09:49.683Z,3.61
2016-12-24T07:11:00.411Z,3.67
2016-12-24T07:12:11.136Z,3.59
2016-12-24T07:13:21.874Z,3.63
2016-12-24T07:14:32.598Z,3.76
2016-12-24T07:15:43.320Z,3.67
2016-12-24T07:16:54.045Z,3.74
2016-12-24T07:18:04.780Z,3.73
2016-12-24T07:19:15.502Z,3.76
2016-12-24T07:20:26.250Z,3.66
2016-12-24T07:21:36.996Z,3.76
2016-12-24T07:22:47.721Z,3.76
2016-12-24T07:23:58.444Z,3.7
2016-12-24T07:25:09.180Z,3.85
2016-12-24T07:26:19.934Z,3.71
2016-12-24T07:27:30.675Z,3.82
2016-12-24T07:28:41.401Z,3.68
2016-12-24T07:29:52.099Z,3.84
2016-12-24T07:31:02.836Z,3.81
2016-12-24T07:32:13.581Z,3.76
2016-12-24T07:33:24.328Z,3.86
2016-12-24T07:34:35.060Z,3.82
2016-12-24T07:35:45.798Z,3.89
2016-12-24T07:36:56.525Z,3.91
2016-12-24T07:38:07.247Z,3.85
2016-12-24T07:39:17.985Z,3.84
2016-12-24T07:40:28.704Z,3.94
2016-12-24T07:41:39.450Z,3.94
2016-12-24T07:42:50.159Z,3.94
2016-12-24T07:44:00.850Z,3.99
2016-12-24T07:45:11.570Z,3.94
2016-12-24T07:46:22.613Z,3.96
2016-12-24T07:47:33.318Z,4.03
2016-12-24T07:48:44.011Z,4.02
2016-12-24T07:49:54.725Z,4.03
2016-12-24T07:51:05.425Z,4
2016-12-24T07:52:16.449Z,4.02
2016-12-24T07:53:27.165Z,4.02
2016-12-24T07:54:37.913Z,4.06
2016-12-24T07:55:48.652Z,4.07
2016-12-24T07:56:59.397Z,4.09
2016-12-24T07:58:10.125Z,4.13
2016-12-24T07:59:20.852Z,4.1
2016-12-24T08:00:31.589Z,4.09
2016-12-24T08:01:42.332Z,4.09
2016-12-24T08:02:53.057Z,4.04
2016-12-24T08:04:03.813Z,4.12
2016-12-24T08:05:14.554Z,4.16
2016-12-24T08:06:25.277Z,4.2
2016-12-24T08:07:35.995Z,4.2
2016-12-24T08:08:46.761Z,4.21
2016-12-24T08:09:57.486Z,4.06
2016-12-24T08:11:08.213Z,4.25
2016-12-24T08:12:18.937Z,4.22
2016-12-24T08:13:29.679Z,4.24
2016-12-24T08:14:40.419Z,4.2
2016-12-24T08:15:51.121Z,4.25
2016-12-24T08:17:01.823Z,4.27
2016-12-24T08:18:12.575Z,4.31
2016-12-24T08:19:23.296Z,4.24
2016-12-24T08:20:34.020Z,4.3
2016-12-24T08:21:44.750Z,4.3
2016-12-24T08:22:55.497Z,4.34
2016-12-24T08:24:06.216Z,4.31
2016-12-24T08:25:16.937Z,4.2
2016-12-24T08:26:27.680Z,4.32
2016-12-24T08:27:38.404Z,4.32
2016-12-24T08:28:49.138Z,4.34
2016-12-24T08:29:59.846Z,4.3
2016-12-24T08:31:10.566Z,4.39
2016-12-24T08:32:21.301Z,4.31
2016-12-24T08:33:32.024Z,4.42
2016-12-24T08:34:42.753Z,4.4
2016-12-24T08:35:53.489Z,4.42
2016-12-24T08:37:04.211Z,4.45
2016-12-24T08:38:14.960Z,4.42
2016-12-24T08:39:25.685Z,4.42
2016-12-24T08:40:36.409Z,4.49
2016-12-24T08:41:47.127Z,4.45
2016-12-24T08:42:57.866Z,4.49
2016-12-24T08:44:08.597Z,4.52
2016-12-24T08:45:19.344Z,4.48
2016-12-24T08:46:30.364Z,4.49
2016-12-24T08:47:41.078Z,4.52
2016-12-24T08:48:51.810Z,4.53
2016-12-24T08:50:02.542Z,4.49
2016-12-24T08:51:13.272Z,4.52
2016-12-24T08:52:24.012Z,4.57
2016-12-24T08:53:34.713Z,4.64
2016-12-24T08:54:45.458Z,4.64
2016-12-24T08:55:56.197Z,4.64
2016-12-24T08:57:06.946Z,4.6
2016-12-24T08:58:17.663Z,4.6
2016-12-24T08:59:28.392Z,4.61
2016-12-24T09:00:39.110Z,4.58
2016-12-24T09:01:49.835Z,4.71
2016-12-24T09:03:00.551Z,4.7
2016-12-24T09:04:11.301Z,4.7
2016-12-24T09:05:21.989Z,4.75
2016-12-24T09:06:32.739Z,4.76
2016-12-24T09:07:43.444Z,4.74
2016-12-24T09:08:54.185Z,4.68
2016-12-24T09:10:04.873Z,4.75
2016-12-24T09:11:15.603Z,4.74
2016-12-24T09:12:26.324Z,4.79
2016-12-24T09:13:37.015Z,4.79
2016-12-24T09:14:47.740Z,4.89
2016-12-24T09:15:58.478Z,4.95
2016-12-24T09:17:09.203Z,4.9
2016-12-24T09:18:19.928Z,4.9
2016-12-24T09:19:30.670Z,4.95
2016-12-24T09:20:41.398Z,4.95
2016-12-24T09:21:52.133Z,4.9
2016-12-24T09:23:02.883Z,4.92
2016-12-24T09:24:13.588Z,5
2016-12-24T09:25:24.324Z,4.95
2016-12-24T09:26:35.079Z,5.05
2016-12-24T09:27:45.813Z,5
2016-12-24T09:28:56.534Z,5.08
2016-12-24T09:30:07.268Z,5.05
2016-12-24T09:31:18.001Z,5.1
2016-12-24T09:32:28.750Z,5.08
2016-12-24T09:33:39.501Z,5.12
2016-12-24T09:34:50.215Z,5.1
2016-12-24T09:36:00.964Z,5.15
2016-12-24T09:37:11.707Z,5.16
2016-12-24T09:38:22.464Z,5.18
2016-12-24T09:39:33.156Z,5.1
2016-12-24T09:40:43.882Z,5.16
2016-12-24T09:41:54.618Z,5.2
2016-12-24T09:43:05.398Z,5.22
2016-12-24T09:44:16.117Z,5.16
2016-12-24T09:45:26.856Z,5.19
2016-12-24T09:46:37.586Z,5.23
2016-12-24T09:47:48.296Z,5.2
2016-12-24T09:48:59.351Z,5.23
2016-12-24T09:50:10.095Z,5.23
2016-12-24T09:51:20.808Z,5.2
2016-12-24T09:52:31.565Z,5.22
2016-12-24T09:53:42.283Z,5.22
2016-12-24T09:54:53.025Z,5.23
2016-12-24T09:56:03.728Z,5.22
2016-12-24T09:57:14.471Z,5.29
2016-12-24T09:58:25.512Z,5.22
2016-12-24T09:59:36.258Z,5.23
2016-12-24T10:00:46.960Z,5.25
2016-12-24T10:01:57.683Z,5.26
2016-12-24T10:03:08.718Z,5.25
2016-12-24T10:04:19.476Z,5.26
2016-12-24T10:05:30.218Z,5.25
2016-12-24T10:06:40.964Z,5.19
2016-12-24T10:07:51.703Z,5.28
2016-12-24T10:09:02.437Z,5.26
2016-12-24T10:10:13.170Z,5.33
2016-12-24T10:11:23.880Z,5.37
2016-12-24T10:12:34.602Z,5.38
2016-12-24T10:13:45.332Z,5.34
2016-12-24T10:14:56.090Z,5.33
2016-12-24T10:16:06.808Z,5.33
2016-12-24T10:17:17.532Z,5.4
2016-12-24T10:18:28.266Z,5.47
2016-12-24T10:19:39.274Z,5.51
2016-12-24T10:20:50.011Z,5.52
2016-12-24T10:22:00.744Z,5.44
2016-12-24T10:23:11.479Z,5.51
2016-12-24T10:24:22.221Z,5.49
2016-12-24T10:25:32.971Z,5.61
2016-12-24T10:26:43.992Z,5.52
2016-12-24T10:27:54.745Z,5.61
2016-12-24T10:29:05.484Z,5.59
2016-12-24T10:30:16.254Z,5.62
2016-12-24T10:31:27.000Z,5.54
2016-12-24T10:32:37.744Z,5.56
2016-12-24T10:33:48.468Z,5.56
2016-12-24T10:34:59.175Z,5.72
2016-12-24T10:36:09.888Z,5.7
2016-12-24T10:37:20.613Z,5.62
2016-12-24T10:38:31.334Z,5.65
2016-12-24T10:39:42.072Z,5.61
2016-12-24T10:40:52.821Z,5.65
2016-12-24T10:42:03.547Z,5.69
2016-12-24T10:43:14.256Z,5.76
2016-12-24T10:44:25.015Z,5.72
2016-12-24T10:45:35.706Z,5.7
2016-12-24T10:46:46.404Z,5.73
2016-12-24T10:47:57.148Z,5.77
2016-12-24T10:49:07.886Z,5.79
2016-12-24T10:50:18.634Z,5.79
2016-12-24T10:51:29.357Z,5.76
2016-12-24T10:52:40.111Z,5.8
2016-12-24T10:53:50.857Z,5.83
2016-12-24T10:55:01.594Z,5.94
2016-12-24T10:56:12.325Z,5.88
2016-12-24T10:57:23.069Z,5.94
2016-12-24T10:58:33.812Z,5.92
2016-12-24T10:59:44.528Z,5.98
2016-12-24T11:00:55.260Z,5.98
2016-12-24T11:02:05.993Z,5.9
2016-12-24T11:03:16.738Z,5.99
2016-12-24T11:04:27.443Z,5.9
2016-12-24T11:05:38.164Z,6.12
2016-12-24T11:06:48.865Z,6.05
2016-12-24T11:07:59.556Z,6.06
2016-12-24T11:09:10.326Z,6.07
2016-12-24T11:10:21.100Z,6.01
2016-12-24T11:11:31.822Z,6.07
2016-12-24T11:12:42.555Z,6.07
2016-12-24T11:13:53.581Z,6.05
2016-12-24T11:15:04.310Z,6.09
2016-12-24T11:16:15.048Z,6.12
2016-12-24T11:17:25.769Z,6.16
2016-12-24T11:18:36.490Z,6.2
2016-12-24T11:19:47.195Z,6.07
2016-12-24T11:20:57.953Z,6.05
2016-12-24T11:22:08.677Z,6.01
2016-12-24T11:23:19.395Z,6.02
2016-12-24T11:24:30.141Z,6.09
2016-12-24T11:25:40.865Z,6.07
2016-12-24T11:26:51.565Z,6.09
2016-12-24T11:28:02.266Z,6.02
2016-12-24T11:29:13.011Z,6.05
2016-12-24T11:30:23.721Z,5.99
2016-12-24T11:31:34.453Z,6.07
2016-12-24T11:32:45.195Z,6.05
2016-12-24T11:33:55.920Z,6.13
2016-12-24T11:35:06.641Z,6.1
2016-12-24T11:36:17.375Z,5.95
2016-12-24T11:37:28.100Z,6.1
2016-12-24T11:38:38.819Z,6.01
2016-12-24T11:39:49.542Z,6.09
2016-12-24T11:41:00.263Z,5.99
2016-12-24T11:42:10.994Z,6.02
2016-12-24T11:43:21.701Z,6.09
2016-12-24T11:44:32.423Z,6.06
2016-12-24T11:45:43.143Z,6.1
2016-12-24T11:46:53.863Z,6.06
2016-12-24T11:48:04.613Z,6.02
2016-12-24T11:49:15.322Z,5.99
2016-12-24T11:50:26.055Z,6.05
2016-12-24T11:51:36.772Z,6.09
2016-12-24T11:52:47.482Z,6.06
2016-12-24T11:53:58.213Z,5.98
2016-12-24T11:55:08.936Z,6.09
2016-12-24T11:56:19.667Z,5.97
2016-12-24T11:57:30.427Z,6.05
2016-12-24T11:58:41.153Z,6.1
2016-12-24T11:59:51.898Z,6.05
2016-12-24T12:01:02.628Z,6.06
2016-12-24T12:02:13.372Z,6.05
2016-12-24T12:03:24.118Z,6.05
2016-12-24T12:04:34.831Z,6.01
2016-12-24T12:05:45.562Z,6.13
2016-12-24T12:06:56.295Z,6.1
2016-12-24T12:08:07.042Z,6.09
2016-12-24T12:09:17.791Z,6.09
2016-12-24T12:10:28.532Z,6.06
2016-12-24T12:11:39.256Z,6.13
2016-12-24T12:12:49.982Z,6.17
2016-12-24T12:14:00.699Z,6.1
2016-12-24T12:15:11.420Z,6.1
2016-12-24T12:16:22.150Z,6.17
2016-12-24T12:17:32.870Z,6.09
2016-12-24T12:18:43.585Z,6.1
2016-12-24T12:19:54.308Z,6.19
2016-12-24T12:21:05.347Z,6.19
2016-12-24T12:22:16.096Z,6.07
2016-12-24T12:23:26.821Z,6.22
2016-12-24T12:24:37.594Z,6.15
2016-12-24T12:25:48.313Z,6.17
2016-12-24T12:26:59.333Z,6.26
2016-12-24T12:28:10.058Z,6.2
2016-12-24T12:29:21.129Z,6.13
2016-12-24T12:30:31.867Z,6.29
2016-12-24T12:31:42.597Z,6.26
2016-12-24T12:32:53.335Z,6.22
2016-12-24T12:34:04.056Z,6.26
2016-12-24T12:35:14.780Z,6.25
2016-12-24T12:36:25.498Z,6.19
2016-12-24T12:37:36.227Z,6.25
2016-12-24T12:38:46.965Z,6.28
2016-12-24T12:39:57.710Z,6.31
2016-12-24T12:41:08.456Z,6.32
2016-12-24T12:42:19.203Z,6.22
2016-12-24T12:43:29.924Z,6.29
2016-12-24T12:44:40.645Z,6.31
2016-12-24T12:45:51.397Z,6.22
2016-12-24T12:47:02.137Z,6.34
2016-12-24T12:48:12.868Z,6.31
2016-12-24T12:49:23.608Z,6.31
2016-12-24T12:50:34.325Z,6.32
2016-12-24T12:51:45.051Z,6.35
2016-12-24T12:52:55.767Z,6.38
2016-12-24T12:54:06.513Z,6.39
2016-12-24T12:55:17.231Z,6.36
2016-12-24T12:56:27.964Z,6.43
2016-12-24T12:57:38.726Z,6.47
2016-12-24T12:58:49.455Z,6.44
2016-12-24T13:00:00.192Z,6.43
2016-12-24T13:01:10.947Z,6.35
2016-12-24T13:02:21.667Z,6.32
2016-12-24T13:03:32.386Z,6.38
2016-12-24T13:04:43.110Z,6.43
2016-12-24T13:05:53.845Z,6.36
2016-12-24T13:07:04.565Z,6.34
2016-12-24T13:08:15.311Z,6.38
2016-12-24T13:09:26.045Z,6.35
2016-12-24T13:10:36.807Z,6.29
2016-12-24T13:11:47.533Z,6.29
2016-12-24T13:12:58.260Z,6.41
2016-12-24T13:14:09.017Z,6.29
2016-12-24T13:15:19.767Z,6.32
2016-12-24T13:16:30.487Z,6.29
2016-12-24T13:17:41.194Z,6.28
2016-12-24T13:18:51.931Z,6.29
2016-12-24T13:20:02.701Z,6.32
2016-12-24T13:21:13.427Z,6.26
2016-12-24T13:22:24.151Z,6.29
2016-12-24T13:23:34.871Z,6.32
2016-12-24T13:24:45.590Z,6.26
2016-12-24T13:25:56.335Z,6.32
2016-12-24T13:27:07.062Z,6.22
2016-12-24T13:28:17.803Z,6.2
2016-12-24T13:29:28.525Z,6.16
2016-12-24T13:30:39.276Z,6.22
2016-12-24T13:31:50.008Z,6.22
2016-12-24T13:33:00.740Z,6.25
2016-12-24T13:34:11.787Z,6.22
2016-12-24T13:35:22.507Z,6.16
2016-12-24T13:36:33.217Z,6.26
2016-12-24T13:37:43.972Z,6.16
2016-12-24T13:38:54.684Z,6.19
2016-12-24T13:40:05.434Z,6.19
2016-12-24T13:41:16.155Z,6.22
2016-12-24T13:42:26.897Z,6.25
2016-12-24T13:43:37.626Z,6.19
2016-12-24T13:44:48.647Z,6.22
2016-12-24T13:45:59.371Z,6.2
2016-12-24T13:47:10.112Z,6.19
2016-12-24T13:48:20.810Z,6.19
2016-12-24T13:49:31.536Z,6.16
2016-12-24T13:50:42.295Z,6.16
2016-12-24T13:51:53.044Z,6.16
2016-12-24T13:53:03.787Z,6.17
2016-12-24T13:54:14.512Z,6.17
2016-12-24T13:55:25.258Z,6.25
2016-12-24T13:56:35.979Z,6.17
2016-12-24T13:57:46.706Z,6.17
2016-12-24T13:58:57.428Z,6.15
2016-12-24T14:00:08.163Z,6.15
2016-12-24T14:01:18.887Z,6.1
2016-12-24T14:02:29.617Z,6.16
2016-12-24T14:03:40.363Z,6.13
2016-12-24T14:04:51.076Z,6.15
2016-12-24T14:06:01.793Z,6.13
2016-12-24T14:07:12.523Z,6.09
2016-12-24T14:08:23.244Z,6.15
2016-12-24T14:09:33.931Z,6.16
2016-12-24T14:10:44.660Z,6.2
2016-12-24T14:11:55.377Z,6.12
2016-12-24T14:13:06.078Z,6.07
2016-12-24T14:14:16.801Z,6.13
2016-12-24T14:15:27.523Z,6.05
2016-12-24T14:16:38.261Z,6.01
2016-12-24T14:17:48.989Z,6.12
2016-12-24T14:18:59.715Z,6.06
2016-12-24T14:20:10.449Z,6.15
2016-12-24T14:21:21.179Z,6.13
2016-12-24T14:22:31.913Z,6.1
2016-12-24T14:23:42.684Z,6.05
2016-12-24T14:24:53.434Z,6.09
2016-12-24T14:26:04.140Z,6.05
2016-12-24T14:27:14.858Z,6.05
2016-12-24T14:28:25.552Z,6.05
2016-12-24T14:29:36.548Z,6.06
2016-12-24T14:30:47.270Z,6.07
2016-12-24T14:31:58.010Z,6.07
2016-12-24T14:33:08.742Z,5.99
2016-12-24T14:34:19.476Z,5.97
2016-12-24T14:35:30.179Z,5.97
2016-12-24T14:36:41.226Z,5.97
2016-12-24T14:37:51.962Z,5.87
2016-12-24T14:39:02.683Z,5.87
2016-12-24T14:40:13.429Z,5.88
2016-12-24T14:41:24.156Z,5.9
2016-12-24T14:42:34.871Z,5.79
2016-12-24T14:43:45.592Z,5.84
2016-12-24T14:44:56.312Z,5.8
2016-12-24T14:46:07.033Z,5.77
2016-12-24T14:47:17.767Z,5.79
2016-12-24T14:48:28.487Z,5.77
2016-12-24T14:49:39.197Z,5.76
2016-12-24T14:50:49.917Z,5.64
2016-12-24T14:52:00.664Z,5.65
2016-12-24T14:53:11.386Z,5.72
2016-12-24T14:54:22.117Z,5.58
2016-12-24T14:55:32.855Z,5.61
2016-12-24T14:56:43.610Z,5.61
2016-12-24T14:57:54.347Z,5.61
2016-12-24T14:59:05.079Z,5.55
2016-12-24T15:00:15.822Z,5.59
2016-12-24T15:01:26.864Z,5.61
2016-12-24T15:02:37.602Z,5.52
2016-12-24T15:03:48.352Z,5.55
2016-12-24T15:04:59.077Z,5.52
2016-12-24T15:06:09.801Z,5.47
2016-12-24T15:07:20.515Z,5.46
2016-12-24T15:08:31.233Z,5.47
2016-12-24T15:09:41.991Z,5.58
2016-12-24T15:10:52.714Z,5.58
2016-12-24T15:12:03.446Z,5.61
2016-12-24T15:13:14.157Z,5.61
2016-12-24T15:14:24.899Z,5.58
2016-12-24T15:15:35.623Z,5.64
2016-12-24T15:16:46.358Z,5.54
2016-12-24T15:17:57.075Z,5.51
2016-12-24T15:19:07.834Z,5.54
2016-12-24T15:20:18.556Z,5.54
2016-12-24T15:21:29.301Z,5.61
2016-12-24T15:22:40.020Z,5.58
2016-12-24T15:23:50.741Z,5.56
2016-12-24T15:25:01.465Z,5.56
2016-12-24T15:26:12.226Z,5.58
2016-12-24T15:27:22.969Z,5.65
2016-12-24T15:28:33.723Z,5.7
2016-12-24T15:29:44.473Z,5.74
2016-12-24T15:30:55.206Z,5.64
2016-12-24T15:32:05.957Z,5.62
2016-12-24T15:33:16.682Z,5.64
2016-12-24T15:34:27.384Z,5.61
2016-12-24T15:35:38.120Z,5.64
2016-12-24T15:36:48.849Z,5.72
2016-12-24T15:37:59.568Z,5.76
2016-12-24T15:39:10.304Z,5.64
2016-12-24T15:40:21.035Z,5.77
2016-12-24T15:41:31.749Z,5.76
2016-12-24T15:42:42.492Z,5.76
2016-12-24T15:43:53.217Z,5.79
2016-12-24T15:45:03.958Z,5.76